sensor_id;sensor_type;location;lat;lon;timestamp;temperature;humidity
35531;DHT22;21637;53.352;-6.356;2023-07-31T00:00:49;17.30;99.90
35531;DHT22;21637;53.352;-6.356;2023-07-31T00:03:15;17.20;99.90
35531;DHT22;21637;53.352;-6.356;2023-07-31T00:05:41;17.30;99.90
35531;DHT22;21637;53.352;-6.356;2023-07-31T00:08:06;17.30;99.90
35531;DHT22;21637;53.352;-6.356;2023-07-31T00:10:32;17.20;99.90
35531;DHT22;21637;53.352;-6.356;2023-07-31T00:12:59;17.10;99.90
35531;DHT22;21637;53.352;-6.356;2023-07-31T00:15:25;17.10;99.90
35531;DHT22;21637;53.352;-6.356;2023-07-31T00:17:50;17.10;99.90
35531;DHT22;21637;53.352;-6.356;2023-07-31T00:20:16;17.10;99.90
35531;DHT22;21637;53.352;-6.356;2023-07-31T00:22:42;17.10;99.90
35531;DHT22;21637;53.352;-6.356;2023-07-31T00:25:08;17.10;99.90
35531;DHT22;21637;53.352;-6.356;2023-07-31T00:27:33;17.10;99.90
35531;DHT22;21637;53.352;-6.356;2023-07-31T00:29:59;17.10;99.90
35531;DHT22;21637;53.352;-6.356;2023-07-31T00:32:25;17.10;99.90
35531;DHT22;21637;53.352;-6.356;2023-07-31T00:34:50;17.10;99.90
35531;DHT22;21637;53.352;-6.356;2023-07-31T00:37:16;17.10;99.90
35531;DHT22;21637;53.352;-6.356;2023-07-31T00:39:42;17.10;99.90
35531;DHT22;21637;53.352;-6.356;2023-07-31T00:42:08;17.10;99.90
35531;DHT22;21637;53.352;-6.356;2023-07-31T00:44:33;17.10;99.90
35531;DHT22;21637;53.352;-6.356;2023-07-31T00:46:59;17.10;99.90
35531;DHT22;21637;53.352;-6.356;2023-07-31T00:49:26;17.00;99.90
35531;DHT22;21637;53.352;-6.356;2023-07-31T00:51:53;17.00;99.90
35531;DHT22;21637;53.352;-6.356;2023-07-31T00:54:19;17.00;99.90
35531;DHT22;21637;53.352;-6.356;2023-07-31T00:56:47;17.00;99.90
35531;DHT22;21637;53.352;-6.356;2023-07-31T00:59:14;17.00;99.90
35531;DHT22;21637;53.352;-6.356;2023-07-31T01:01:40;17.00;99.90
35531;DHT22;21637;53.352;-6.356;2023-07-31T01:04:06;17.00;99.90
35531;DHT22;21637;53.352;-6.356;2023-07-31T01:09:55;17.00;99.90
35531;DHT22;21637;53.352;-6.356;2023-07-31T01:12:24;17.00;99.90
35531;DHT22;21637;53.352;-6.356;2023-07-31T01:15:05;17.00;99.90
35531;DHT22;21637;53.352;-6.356;2023-07-31T01:17:31;17.00;99.90
35531;DHT22;21637;53.352;-6.356;2023-07-31T01:20:01;17.00;99.90
35531;DHT22;21637;53.352;-6.356;2023-07-31T01:26:34;17.00;99.90
35531;DHT22;21637;53.352;-6.356;2023-07-31T01:31:32;17.00;99.90
35531;DHT22;21637;53.352;-6.356;2023-07-31T01:34:01;16.90;99.90
35531;DHT22;21637;53.352;-6.356;2023-07-31T01:36:28;16.90;99.90
35531;DHT22;21637;53.352;-6.356;2023-07-31T01:38:59;16.90;99.90
35531;DHT22;21637;53.352;-6.356;2023-07-31T01:41:25;16.80;99.90
35531;DHT22;21637;53.352;-6.356;2023-07-31T01:43:51;16.80;99.90
35531;DHT22;21637;53.352;-6.356;2023-07-31T01:46:17;16.80;99.90
35531;DHT22;21637;53.352;-6.356;2023-07-31T01:48:42;16.80;99.90
35531;DHT22;21637;53.352;-6.356;2023-07-31T01:51:08;16.70;99.90
35531;DHT22;21637;53.352;-6.356;2023-07-31T01:53:34;16.70;99.90
35531;DHT22;21637;53.352;-6.356;2023-07-31T01:56:00;16.70;99.90
35531;DHT22;21637;53.352;-6.356;2023-07-31T01:58:25;16.70;99.90
35531;DHT22;21637;53.352;-6.356;2023-07-31T02:00:51;16.70;99.90
35531;DHT22;21637;53.352;-6.356;2023-07-31T02:03:17;16.70;99.90
35531;DHT22;21637;53.352;-6.356;2023-07-31T02:05:46;16.70;99.90
35531;DHT22;21637;53.352;-6.356;2023-07-31T02:08:13;16.80;99.90
35531;DHT22;21637;53.352;-6.356;2023-07-31T02:10:39;16.80;99.90
35531;DHT22;21637;53.352;-6.356;2023-07-31T02:13:05;16.70;99.90
35531;DHT22;21637;53.352;-6.356;2023-07-31T02:15:30;16.70;99.90
35531;DHT22;21637;53.352;-6.356;2023-07-31T02:17:56;16.70;99.90
35531;DHT22;21637;53.352;-6.356;2023-07-31T02:20:22;16.80;99.90
35531;DHT22;21637;53.352;-6.356;2023-07-31T02:22:48;16.70;99.90
35531;DHT22;21637;53.352;-6.356;2023-07-31T02:25:14;16.70;99.90
35531;DHT22;21637;53.352;-6.356;2023-07-31T02:27:39;16.70;99.90
35531;DHT22;21637;53.352;-6.356;2023-07-31T02:30:05;16.70;99.90
35531;DHT22;21637;53.352;-6.356;2023-07-31T02:32:31;16.70;99.90
35531;DHT22;21637;53.352;-6.356;2023-07-31T02:34:57;16.70;99.90
35531;DHT22;21637;53.352;-6.356;2023-07-31T02:37:23;16.70;99.90
35531;DHT22;21637;53.352;-6.356;2023-07-31T02:39:49;16.70;99.90
35531;DHT22;21637;53.352;-6.356;2023-07-31T02:42:15;16.70;99.90
35531;DHT22;21637;53.352;-6.356;2023-07-31T02:44:40;16.70;99.90
35531;DHT22;21637;53.352;-6.356;2023-07-31T02:47:06;16.70;99.90
35531;DHT22;21637;53.352;-6.356;2023-07-31T02:49:32;16.70;99.90
35531;DHT22;21637;53.352;-6.356;2023-07-31T02:51:57;16.80;99.90
35531;DHT22;21637;53.352;-6.356;2023-07-31T02:54:23;16.80;99.90
35531;DHT22;21637;53.352;-6.356;2023-07-31T02:56:49;16.70;99.90
35531;DHT22;21637;53.352;-6.356;2023-07-31T02:59:15;16.70;99.90
35531;DHT22;21637;53.352;-6.356;2023-07-31T03:01:40;16.70;99.90
35531;DHT22;21637;53.352;-6.356;2023-07-31T03:04:07;16.70;99.90
35531;DHT22;21637;53.352;-6.356;2023-07-31T03:06:32;16.70;99.90
35531;DHT22;21637;53.352;-6.356;2023-07-31T03:08:58;16.80;99.90
35531;DHT22;21637;53.352;-6.356;2023-07-31T03:11:24;16.70;99.90
35531;DHT22;21637;53.352;-6.356;2023-07-31T03:13:49;16.70;99.90
35531;DHT22;21637;53.352;-6.356;2023-07-31T03:16:15;16.70;99.90
35531;DHT22;21637;53.352;-6.356;2023-07-31T03:18:41;16.70;99.90
35531;DHT22;21637;53.352;-6.356;2023-07-31T03:21:06;16.70;99.90
35531;DHT22;21637;53.352;-6.356;2023-07-31T03:23:32;16.70;99.90
35531;DHT22;21637;53.352;-6.356;2023-07-31T03:26:02;16.70;99.90
35531;DHT22;21637;53.352;-6.356;2023-07-31T03:28:29;16.70;99.90
35531;DHT22;21637;53.352;-6.356;2023-07-31T03:30:55;16.70;99.90
35531;DHT22;21637;53.352;-6.356;2023-07-31T03:33:21;16.60;99.90
35531;DHT22;21637;53.352;-6.356;2023-07-31T03:35:47;16.70;99.90
35531;DHT22;21637;53.352;-6.356;2023-07-31T03:38:13;16.70;99.90
35531;DHT22;21637;53.352;-6.356;2023-07-31T03:40:39;16.70;99.90
35531;DHT22;21637;53.352;-6.356;2023-07-31T03:43:05;16.70;99.90
35531;DHT22;21637;53.352;-6.356;2023-07-31T03:45:31;16.70;99.90
35531;DHT22;21637;53.352;-6.356;2023-07-31T03:47:57;16.70;99.90
35531;DHT22;21637;53.352;-6.356;2023-07-31T03:50:23;16.70;99.90
35531;DHT22;21637;53.352;-6.356;2023-07-31T03:52:50;16.70;99.90
35531;DHT22;21637;53.352;-6.356;2023-07-31T03:55:16;16.70;99.90
35531;DHT22;21637;53.352;-6.356;2023-07-31T03:57:42;16.70;99.90
35531;DHT22;21637;53.352;-6.356;2023-07-31T04:00:08;16.70;99.90
35531;DHT22;21637;53.352;-6.356;2023-07-31T04:02:33;16.70;99.90
35531;DHT22;21637;53.352;-6.356;2023-07-31T04:04:59;16.70;99.90
35531;DHT22;21637;53.352;-6.356;2023-07-31T04:07:25;16.70;99.90
35531;DHT22;21637;53.352;-6.356;2023-07-31T04:09:50;16.70;99.90
35531;DHT22;21637;53.352;-6.356;2023-07-31T04:12:16;16.70;99.90
35531;DHT22;21637;53.352;-6.356;2023-07-31T04:14:42;16.80;99.90
35531;DHT22;21637;53.352;-6.356;2023-07-31T04:17:07;16.80;99.90
35531;DHT22;21637;53.352;-6.356;2023-07-31T04:19:33;16.80;99.90
35531;DHT22;21637;53.352;-6.356;2023-07-31T04:21:59;16.80;99.90
35531;DHT22;21637;53.352;-6.356;2023-07-31T04:24:24;16.70;99.90
35531;DHT22;21637;53.352;-6.356;2023-07-31T04:26:51;16.70;99.90
35531;DHT22;21637;53.352;-6.356;2023-07-31T04:29:17;16.70;99.90
35531;DHT22;21637;53.352;-6.356;2023-07-31T04:31:42;16.70;99.90
35531;DHT22;21637;53.352;-6.356;2023-07-31T04:34:08;16.70;99.90
35531;DHT22;21637;53.352;-6.356;2023-07-31T04:36:34;16.70;99.90
35531;DHT22;21637;53.352;-6.356;2023-07-31T04:39:00;16.70;99.90
35531;DHT22;21637;53.352;-6.356;2023-07-31T04:41:26;16.70;99.90
35531;DHT22;21637;53.352;-6.356;2023-07-31T04:43:52;16.70;99.90
35531;DHT22;21637;53.352;-6.356;2023-07-31T04:46:18;16.70;99.90
35531;DHT22;21637;53.352;-6.356;2023-07-31T04:48:43;16.70;99.90
35531;DHT22;21637;53.352;-6.356;2023-07-31T04:51:09;16.70;99.90
35531;DHT22;21637;53.352;-6.356;2023-07-31T04:53:35;16.70;99.90
35531;DHT22;21637;53.352;-6.356;2023-07-31T04:56:01;16.70;99.90
35531;DHT22;21637;53.352;-6.356;2023-07-31T04:58:27;16.60;99.90
35531;DHT22;21637;53.352;-6.356;2023-07-31T05:00:52;16.70;99.90
35531;DHT22;21637;53.352;-6.356;2023-07-31T05:03:18;16.70;99.90
35531;DHT22;21637;53.352;-6.356;2023-07-31T05:05:44;16.60;99.90
35531;DHT22;21637;53.352;-6.356;2023-07-31T05:08:10;16.60;99.90
35531;DHT22;21637;53.352;-6.356;2023-07-31T05:10:35;16.60;99.90
35531;DHT22;21637;53.352;-6.356;2023-07-31T05:13:01;16.60;99.90
35531;DHT22;21637;53.352;-6.356;2023-07-31T05:15:27;16.60;99.90
35531;DHT22;21637;53.352;-6.356;2023-07-31T05:17:52;16.50;99.90
35531;DHT22;21637;53.352;-6.356;2023-07-31T05:20:18;16.50;99.90
35531;DHT22;21637;53.352;-6.356;2023-07-31T05:22:44;16.50;99.90
35531;DHT22;21637;53.352;-6.356;2023-07-31T05:25:09;16.50;99.90
35531;DHT22;21637;53.352;-6.356;2023-07-31T05:27:35;16.50;99.90
35531;DHT22;21637;53.352;-6.356;2023-07-31T05:30:01;16.40;99.90
35531;DHT22;21637;53.352;-6.356;2023-07-31T05:32:27;16.40;99.90
35531;DHT22;21637;53.352;-6.356;2023-07-31T05:34:52;16.40;99.90
35531;DHT22;21637;53.352;-6.356;2023-07-31T05:37:19;16.40;99.90
35531;DHT22;21637;53.352;-6.356;2023-07-31T05:39:45;16.40;99.90
35531;DHT22;21637;53.352;-6.356;2023-07-31T05:42:10;16.40;99.90
35531;DHT22;21637;53.352;-6.356;2023-07-31T05:44:36;16.40;99.90
35531;DHT22;21637;53.352;-6.356;2023-07-31T05:47:02;16.40;99.90
35531;DHT22;21637;53.352;-6.356;2023-07-31T05:49:27;16.50;99.90
35531;DHT22;21637;53.352;-6.356;2023-07-31T05:51:53;16.40;99.90
35531;DHT22;21637;53.352;-6.356;2023-07-31T05:54:19;16.50;99.90
35531;DHT22;21637;53.352;-6.356;2023-07-31T05:56:45;16.40;99.90
35531;DHT22;21637;53.352;-6.356;2023-07-31T05:59:12;16.50;99.90
35531;DHT22;21637;53.352;-6.356;2023-07-31T06:01:39;16.50;99.90
35531;DHT22;21637;53.352;-6.356;2023-07-31T06:04:04;16.40;99.90
35531;DHT22;21637;53.352;-6.356;2023-07-31T06:06:30;16.40;99.90
35531;DHT22;21637;53.352;-6.356;2023-07-31T06:08:56;16.40;99.90
35531;DHT22;21637;53.352;-6.356;2023-07-31T06:11:22;16.30;99.90
35531;DHT22;21637;53.352;-6.356;2023-07-31T06:13:48;16.30;99.90
35531;DHT22;21637;53.352;-6.356;2023-07-31T06:16:14;16.20;99.90
35531;DHT22;21637;53.352;-6.356;2023-07-31T06:18:41;16.30;99.90
35531;DHT22;21637;53.352;-6.356;2023-07-31T06:21:09;16.20;99.90
35531;DHT22;21637;53.352;-6.356;2023-07-31T06:23:34;16.20;99.90
35531;DHT22;21637;53.352;-6.356;2023-07-31T06:26:00;16.20;99.90
35531;DHT22;21637;53.352;-6.356;2023-07-31T06:28:30;16.10;99.90
35531;DHT22;21637;53.352;-6.356;2023-07-31T06:30:59;16.20;99.90
35531;DHT22;21637;53.352;-6.356;2023-07-31T06:33:27;16.20;99.90
35531;DHT22;21637;53.352;-6.356;2023-07-31T06:35:53;16.20;99.90
35531;DHT22;21637;53.352;-6.356;2023-07-31T06:38:22;16.20;99.90
35531;DHT22;21637;53.352;-6.356;2023-07-31T06:40:49;16.20;99.90
35531;DHT22;21637;53.352;-6.356;2023-07-31T06:43:15;16.20;99.90
35531;DHT22;21637;53.352;-6.356;2023-07-31T06:45:41;16.20;99.90
35531;DHT22;21637;53.352;-6.356;2023-07-31T06:48:07;16.20;99.90
35531;DHT22;21637;53.352;-6.356;2023-07-31T06:50:32;16.20;99.90
35531;DHT22;21637;53.352;-6.356;2023-07-31T06:52:58;16.20;99.90
35531;DHT22;21637;53.352;-6.356;2023-07-31T06:55:24;16.30;99.90
35531;DHT22;21637;53.352;-6.356;2023-07-31T06:57:53;16.30;99.90
35531;DHT22;21637;53.352;-6.356;2023-07-31T07:00:19;16.30;99.90
35531;DHT22;21637;53.352;-6.356;2023-07-31T07:02:45;16.30;99.90
35531;DHT22;21637;53.352;-6.356;2023-07-31T07:05:13;16.30;99.90
35531;DHT22;21637;53.352;-6.356;2023-07-31T07:07:40;16.30;99.90
35531;DHT22;21637;53.352;-6.356;2023-07-31T07:10:06;16.30;99.90
35531;DHT22;21637;53.352;-6.356;2023-07-31T07:12:32;16.30;99.90
35531;DHT22;21637;53.352;-6.356;2023-07-31T07:14:59;16.20;99.90
35531;DHT22;21637;53.352;-6.356;2023-07-31T07:17:26;16.20;99.90
35531;DHT22;21637;53.352;-6.356;2023-07-31T07:19:51;16.20;99.90
35531;DHT22;21637;53.352;-6.356;2023-07-31T07:22:18;16.30;99.90
35531;DHT22;21637;53.352;-6.356;2023-07-31T07:24:43;16.20;99.90
35531;DHT22;21637;53.352;-6.356;2023-07-31T07:27:09;16.30;99.90
35531;DHT22;21637;53.352;-6.356;2023-07-31T07:29:35;16.30;99.90
35531;DHT22;21637;53.352;-6.356;2023-07-31T07:32:01;16.30;99.90
35531;DHT22;21637;53.352;-6.356;2023-07-31T07:34:27;16.40;99.90
35531;DHT22;21637;53.352;-6.356;2023-07-31T07:36:54;16.30;99.90
35531;DHT22;21637;53.352;-6.356;2023-07-31T07:39:20;16.30;99.90
35531;DHT22;21637;53.352;-6.356;2023-07-31T07:41:46;16.30;99.90
35531;DHT22;21637;53.352;-6.356;2023-07-31T07:44:12;16.20;99.90
35531;DHT22;21637;53.352;-6.356;2023-07-31T07:46:38;16.20;99.90
35531;DHT22;21637;53.352;-6.356;2023-07-31T07:49:04;16.20;99.90
35531;DHT22;21637;53.352;-6.356;2023-07-31T07:51:30;16.10;99.90
35531;DHT22;21637;53.352;-6.356;2023-07-31T07:53:57;16.10;99.90
35531;DHT22;21637;53.352;-6.356;2023-07-31T07:56:24;16.20;99.90
35531;DHT22;21637;53.352;-6.356;2023-07-31T07:58:50;16.30;99.90
35531;DHT22;21637;53.352;-6.356;2023-07-31T08:01:16;16.30;99.90
35531;DHT22;21637;53.352;-6.356;2023-07-31T08:03:42;16.40;99.90
35531;DHT22;21637;53.352;-6.356;2023-07-31T08:06:09;16.40;99.90
35531;DHT22;21637;53.352;-6.356;2023-07-31T08:08:37;16.40;99.90
35531;DHT22;21637;53.352;-6.356;2023-07-31T08:11:03;16.50;99.90
35531;DHT22;21637;53.352;-6.356;2023-07-31T08:13:30;16.60;99.90
35531;DHT22;21637;53.352;-6.356;2023-07-31T08:15:56;16.60;99.90
35531;DHT22;21637;53.352;-6.356;2023-07-31T08:18:21;16.60;99.90
35531;DHT22;21637;53.352;-6.356;2023-07-31T08:20:47;16.60;99.90
35531;DHT22;21637;53.352;-6.356;2023-07-31T08:23:13;16.60;99.90
35531;DHT22;21637;53.352;-6.356;2023-07-31T08:25:39;16.60;99.90
35531;DHT22;21637;53.352;-6.356;2023-07-31T08:28:05;16.60;99.90
35531;DHT22;21637;53.352;-6.356;2023-07-31T08:30:31;16.60;99.90
35531;DHT22;21637;53.352;-6.356;2023-07-31T08:32:58;16.60;99.90
35531;DHT22;21637;53.352;-6.356;2023-07-31T08:35:24;16.60;99.90
35531;DHT22;21637;53.352;-6.356;2023-07-31T08:37:51;16.50;99.90
35531;DHT22;21637;53.352;-6.356;2023-07-31T08:40:16;16.40;99.90
35531;DHT22;21637;53.352;-6.356;2023-07-31T08:42:49;16.30;99.90
35531;DHT22;21637;53.352;-6.356;2023-07-31T08:45:17;16.30;99.90
35531;DHT22;21637;53.352;-6.356;2023-07-31T08:47:51;16.30;99.90
35531;DHT22;21637;53.352;-6.356;2023-07-31T08:50:19;16.30;99.90
35531;DHT22;21637;53.352;-6.356;2023-07-31T08:52:49;16.40;99.90
35531;DHT22;21637;53.352;-6.356;2023-07-31T08:55:16;16.40;99.90
35531;DHT22;21637;53.352;-6.356;2023-07-31T08:57:42;16.50;99.90
35531;DHT22;21637;53.352;-6.356;2023-07-31T09:00:10;16.60;99.90
35531;DHT22;21637;53.352;-6.356;2023-07-31T09:02:45;16.70;99.90
35531;DHT22;21637;53.352;-6.356;2023-07-31T09:05:12;16.80;99.90
35531;DHT22;21637;53.352;-6.356;2023-07-31T09:07:38;16.80;99.90
35531;DHT22;21637;53.352;-6.356;2023-07-31T09:10:04;16.90;99.90
35531;DHT22;21637;53.352;-6.356;2023-07-31T09:12:31;17.00;99.90
35531;DHT22;21637;53.352;-6.356;2023-07-31T09:15:00;17.00;99.90
35531;DHT22;21637;53.352;-6.356;2023-07-31T09:17:33;17.10;99.90
35531;DHT22;21637;53.352;-6.356;2023-07-31T09:20:18;17.10;99.90
35531;DHT22;21637;53.352;-6.356;2023-07-31T09:22:45;17.00;99.90
35531;DHT22;21637;53.352;-6.356;2023-07-31T09:25:25;16.80;99.90
35531;DHT22;21637;53.352;-6.356;2023-07-31T09:27:54;16.80;99.90
35531;DHT22;21637;53.352;-6.356;2023-07-31T09:30:21;16.80;99.90
35531;DHT22;21637;53.352;-6.356;2023-07-31T09:32:48;16.70;99.90
35531;DHT22;21637;53.352;-6.356;2023-07-31T09:35:31;16.70;99.90
35531;DHT22;21637;53.352;-6.356;2023-07-31T09:38:05;16.60;99.90
35531;DHT22;21637;53.352;-6.356;2023-07-31T09:40:33;16.50;99.90
35531;DHT22;21637;53.352;-6.356;2023-07-31T09:43:03;16.50;99.90
35531;DHT22;21637;53.352;-6.356;2023-07-31T09:45:30;16.50;99.90
35531;DHT22;21637;53.352;-6.356;2023-07-31T09:47:56;16.40;99.90
35531;DHT22;21637;53.352;-6.356;2023-07-31T09:50:23;16.40;99.90
35531;DHT22;21637;53.352;-6.356;2023-07-31T09:52:51;16.40;99.90
35531;DHT22;21637;53.352;-6.356;2023-07-31T09:55:19;16.30;99.90
35531;DHT22;21637;53.352;-6.356;2023-07-31T09:57:49;16.30;99.90
35531;DHT22;21637;53.352;-6.356;2023-07-31T10:00:17;16.30;99.90
35531;DHT22;21637;53.352;-6.356;2023-07-31T10:02:45;16.30;99.90
35531;DHT22;21637;53.352;-6.356;2023-07-31T10:05:14;16.40;99.90
35531;DHT22;21637;53.352;-6.356;2023-07-31T10:07:48;16.40;99.90
35531;DHT22;21637;53.352;-6.356;2023-07-31T10:10:16;16.40;99.90
35531;DHT22;21637;53.352;-6.356;2023-07-31T10:12:43;16.50;99.90
35531;DHT22;21637;53.352;-6.356;2023-07-31T10:15:11;16.50;99.90
35531;DHT22;21637;53.352;-6.356;2023-07-31T10:17:38;16.50;99.90
35531;DHT22;21637;53.352;-6.356;2023-07-31T10:20:04;16.60;99.90
35531;DHT22;21637;53.352;-6.356;2023-07-31T10:22:31;16.50;99.90
35531;DHT22;21637;53.352;-6.356;2023-07-31T10:24:59;16.50;99.90
35531;DHT22;21637;53.352;-6.356;2023-07-31T10:27:26;16.40;99.90
35531;DHT22;21637;53.352;-6.356;2023-07-31T10:29:56;16.30;99.90
35531;DHT22;21637;53.352;-6.356;2023-07-31T10:32:23;16.20;99.90
35531;DHT22;21637;53.352;-6.356;2023-07-31T10:34:51;16.10;99.90
35531;DHT22;21637;53.352;-6.356;2023-07-31T10:40:04;16.20;99.90
35531;DHT22;21637;53.352;-6.356;2023-07-31T10:42:35;16.20;99.90
35531;DHT22;21637;53.352;-6.356;2023-07-31T10:45:08;16.30;99.90
35531;DHT22;21637;53.352;-6.356;2023-07-31T10:47:59;16.30;99.90
35531;DHT22;21637;53.352;-6.356;2023-07-31T10:50:26;16.30;99.90
35531;DHT22;21637;53.352;-6.356;2023-07-31T10:52:53;16.40;99.90
35531;DHT22;21637;53.352;-6.356;2023-07-31T10:57:57;16.60;99.90
35531;DHT22;21637;53.352;-6.356;2023-07-31T11:00:26;16.70;99.90
35531;DHT22;21637;53.352;-6.356;2023-07-31T11:03:13;16.90;99.90
35531;DHT22;21637;53.352;-6.356;2023-07-31T11:08:15;17.10;99.90
35531;DHT22;21637;53.352;-6.356;2023-07-31T11:10:42;17.20;99.90
35531;DHT22;21637;53.352;-6.356;2023-07-31T11:13:09;17.10;99.90
35531;DHT22;21637;53.352;-6.356;2023-07-31T11:15:34;17.10;99.90
35531;DHT22;21637;53.352;-6.356;2023-07-31T11:18:01;17.20;99.90
35531;DHT22;21637;53.352;-6.356;2023-07-31T11:20:31;17.20;99.90
35531;DHT22;21637;53.352;-6.356;2023-07-31T11:23:06;17.20;99.90
35531;DHT22;21637;53.352;-6.356;2023-07-31T11:25:33;17.20;99.90
35531;DHT22;21637;53.352;-6.356;2023-07-31T11:28:06;17.20;99.90
35531;DHT22;21637;53.352;-6.356;2023-07-31T11:30:33;17.10;99.90
35531;DHT22;21637;53.352;-6.356;2023-07-31T11:33:01;17.00;99.90
35531;DHT22;21637;53.352;-6.356;2023-07-31T11:35:32;17.10;99.90
35531;DHT22;21637;53.352;-6.356;2023-07-31T11:37:58;17.00;99.90
35531;DHT22;21637;53.352;-6.356;2023-07-31T11:40:24;17.00;99.90
35531;DHT22;21637;53.352;-6.356;2023-07-31T11:42:58;17.00;99.90
35531;DHT22;21637;53.352;-6.356;2023-07-31T11:45:26;17.10;99.90
35531;DHT22;21637;53.352;-6.356;2023-07-31T11:47:55;17.10;99.90
35531;DHT22;21637;53.352;-6.356;2023-07-31T11:50:23;17.20;99.90
35531;DHT22;21637;53.352;-6.356;2023-07-31T11:52:56;17.20;99.90
35531;DHT22;21637;53.352;-6.356;2023-07-31T11:55:23;17.20;99.90
35531;DHT22;21637;53.352;-6.356;2023-07-31T11:57:49;17.30;99.90
35531;DHT22;21637;53.352;-6.356;2023-07-31T12:00:16;17.20;99.90
35531;DHT22;21637;53.352;-6.356;2023-07-31T12:02:43;17.30;99.90
35531;DHT22;21637;53.352;-6.356;2023-07-31T12:05:13;17.40;99.90
35531;DHT22;21637;53.352;-6.356;2023-07-31T12:07:49;17.60;99.90
35531;DHT22;21637;53.352;-6.356;2023-07-31T12:13:05;18.10;99.90
35531;DHT22;21637;53.352;-6.356;2023-07-31T12:18:04;18.40;99.90
35531;DHT22;21637;53.352;-6.356;2023-07-31T12:20:30;18.40;99.90
35531;DHT22;21637;53.352;-6.356;2023-07-31T12:22:56;18.60;99.90
35531;DHT22;21637;53.352;-6.356;2023-07-31T12:25:28;18.70;99.90
35531;DHT22;21637;53.352;-6.356;2023-07-31T12:27:54;18.70;99.90
35531;DHT22;21637;53.352;-6.356;2023-07-31T12:30:31;18.80;99.90
35531;DHT22;21637;53.352;-6.356;2023-07-31T12:32:57;18.80;99.90
35531;DHT22;21637;53.352;-6.356;2023-07-31T12:35:23;18.70;99.90
35531;DHT22;21637;53.352;-6.356;2023-07-31T12:37:49;18.90;99.90
35531;DHT22;21637;53.352;-6.356;2023-07-31T12:40:14;19.00;99.90
35531;DHT22;21637;53.352;-6.356;2023-07-31T12:42:41;19.20;99.90
35531;DHT22;21637;53.352;-6.356;2023-07-31T12:45:07;19.30;99.90
35531;DHT22;21637;53.352;-6.356;2023-07-31T12:47:33;19.30;99.90
35531;DHT22;21637;53.352;-6.356;2023-07-31T12:49:59;19.40;99.90
35531;DHT22;21637;53.352;-6.356;2023-07-31T12:52:24;19.40;99.90
35531;DHT22;21637;53.352;-6.356;2023-07-31T12:54:50;19.50;99.90
35531;DHT22;21637;53.352;-6.356;2023-07-31T12:57:16;19.40;99.90
35531;DHT22;21637;53.352;-6.356;2023-07-31T12:59:41;19.50;99.90
35531;DHT22;21637;53.352;-6.356;2023-07-31T13:02:07;19.40;99.90
35531;DHT22;21637;53.352;-6.356;2023-07-31T13:04:33;19.30;99.90
35531;DHT22;21637;53.352;-6.356;2023-07-31T13:06:58;19.20;99.90
35531;DHT22;21637;53.352;-6.356;2023-07-31T13:09:24;19.00;99.90
35531;DHT22;21637;53.352;-6.356;2023-07-31T13:11:50;18.70;99.90
35531;DHT22;21637;53.352;-6.356;2023-07-31T13:14:15;18.60;99.90
35531;DHT22;21637;53.352;-6.356;2023-07-31T13:16:42;18.50;99.90
35531;DHT22;21637;53.352;-6.356;2023-07-31T13:19:08;18.60;99.90
35531;DHT22;21637;53.352;-6.356;2023-07-31T13:21:33;18.70;99.90
35531;DHT22;21637;53.352;-6.356;2023-07-31T13:24:02;18.80;99.90
35531;DHT22;21637;53.352;-6.356;2023-07-31T13:26:28;18.90;99.90
35531;DHT22;21637;53.352;-6.356;2023-07-31T13:28:54;18.90;99.90
35531;DHT22;21637;53.352;-6.356;2023-07-31T13:31:19;19.00;99.90
35531;DHT22;21637;53.352;-6.356;2023-07-31T13:33:45;19.20;99.90
35531;DHT22;21637;53.352;-6.356;2023-07-31T13:36:11;19.30;99.90
35531;DHT22;21637;53.352;-6.356;2023-07-31T13:38:39;19.40;99.90
35531;DHT22;21637;53.352;-6.356;2023-07-31T13:41:05;19.50;99.90
35531;DHT22;21637;53.352;-6.356;2023-07-31T13:43:31;19.60;99.90
35531;DHT22;21637;53.352;-6.356;2023-07-31T13:45:57;19.50;99.90
35531;DHT22;21637;53.352;-6.356;2023-07-31T13:48:22;19.40;99.90
35531;DHT22;21637;53.352;-6.356;2023-07-31T13:50:48;19.20;99.90
35531;DHT22;21637;53.352;-6.356;2023-07-31T13:53:14;19.20;99.90
35531;DHT22;21637;53.352;-6.356;2023-07-31T13:55:39;19.00;99.90
35531;DHT22;21637;53.352;-6.356;2023-07-31T13:58:05;18.80;99.90
35531;DHT22;21637;53.352;-6.356;2023-07-31T14:00:31;18.40;99.90
35531;DHT22;21637;53.352;-6.356;2023-07-31T14:02:57;18.20;99.90
35531;DHT22;21637;53.352;-6.356;2023-07-31T14:05:22;18.30;99.90
35531;DHT22;21637;53.352;-6.356;2023-07-31T14:07:48;18.20;99.90
35531;DHT22;21637;53.352;-6.356;2023-07-31T14:10:14;18.30;99.90
35531;DHT22;21637;53.352;-6.356;2023-07-31T14:12:40;18.40;99.90
35531;DHT22;21637;53.352;-6.356;2023-07-31T14:15:06;18.40;99.90
35531;DHT22;21637;53.352;-6.356;2023-07-31T14:17:31;18.40;99.90
35531;DHT22;21637;53.352;-6.356;2023-07-31T14:19:57;18.60;99.90
35531;DHT22;21637;53.352;-6.356;2023-07-31T14:22:30;18.70;99.90
35531;DHT22;21637;53.352;-6.356;2023-07-31T14:24:55;18.80;99.90
35531;DHT22;21637;53.352;-6.356;2023-07-31T14:27:21;18.80;99.90
35531;DHT22;21637;53.352;-6.356;2023-07-31T14:29:47;19.00;99.90
35531;DHT22;21637;53.352;-6.356;2023-07-31T14:32:13;19.20;99.90
35531;DHT22;21637;53.352;-6.356;2023-07-31T14:34:38;19.20;99.90
35531;DHT22;21637;53.352;-6.356;2023-07-31T14:37:04;19.30;99.90
35531;DHT22;21637;53.352;-6.356;2023-07-31T14:39:30;19.40;99.90
35531;DHT22;21637;53.352;-6.356;2023-07-31T14:41:56;19.40;99.90
35531;DHT22;21637;53.352;-6.356;2023-07-31T14:44:21;19.40;99.90
35531;DHT22;21637;53.352;-6.356;2023-07-31T14:46:47;19.30;99.90
35531;DHT22;21637;53.352;-6.356;2023-07-31T14:49:13;19.20;99.90
35531;DHT22;21637;53.352;-6.356;2023-07-31T14:51:39;19.20;99.90
35531;DHT22;21637;53.352;-6.356;2023-07-31T14:54:05;19.20;99.90
35531;DHT22;21637;53.352;-6.356;2023-07-31T14:56:30;19.40;99.90
35531;DHT22;21637;53.352;-6.356;2023-07-31T14:58:56;19.40;99.90
35531;DHT22;21637;53.352;-6.356;2023-07-31T15:01:23;19.30;99.90
35531;DHT22;21637;53.352;-6.356;2023-07-31T15:03:48;19.30;99.90
35531;DHT22;21637;53.352;-6.356;2023-07-31T15:06:14;19.20;99.90
35531;DHT22;21637;53.352;-6.356;2023-07-31T15:08:40;18.90;99.90
35531;DHT22;21637;53.352;-6.356;2023-07-31T15:11:07;18.90;99.90
35531;DHT22;21637;53.352;-6.356;2023-07-31T15:13:32;18.70;99.90
35531;DHT22;21637;53.352;-6.356;2023-07-31T15:15:58;18.80;99.90
35531;DHT22;21637;53.352;-6.356;2023-07-31T15:18:24;19.00;99.90
35531;DHT22;21637;53.352;-6.356;2023-07-31T15:20:50;19.10;99.90
35531;DHT22;21637;53.352;-6.356;2023-07-31T15:23:16;19.20;99.90
35531;DHT22;21637;53.352;-6.356;2023-07-31T15:25:42;19.20;99.90
35531;DHT22;21637;53.352;-6.356;2023-07-31T15:28:08;19.10;99.90
35531;DHT22;21637;53.352;-6.356;2023-07-31T15:30:36;18.90;99.90
35531;DHT22;21637;53.352;-6.356;2023-07-31T15:33:03;18.80;99.90
35531;DHT22;21637;53.352;-6.356;2023-07-31T15:35:29;18.40;99.90